createdAt,value
2023-04-05T00:01:37.813Z,99484.91
2023-04-05T00:04:08.195Z,99485.96
2023-04-05T00:06:37.966Z,99484.74
2023-04-05T00:09:07.233Z,99477.94
2023-04-05T00:11:35.842Z,99467.27
2023-04-05T00:14:04.034Z,99458.33
2023-04-05T00:16:32.855Z,99453.50
2023-04-05T00:19:02.232Z,99452.14
2023-04-05T00:21:33.315Z,99451.96
2023-04-05T00:24:01.575Z,99452.02
2023-04-05T00:26:30.737Z,99460.86
2023-04-05T00:28:59.572Z,99471.09
2023-04-05T00:31:28.881Z,99472.20
2023-04-05T00:33:57.257Z,99466.48
2023-04-05T00:36:27.016Z,99456.20
2023-04-05T00:38:55.639Z,99445.29
2023-04-05T00:41:23.785Z,99437.44
2023-04-05T00:43:52.349Z,99441.20
2023-04-05T00:46:22.109Z,99433.41
2023-04-05T00:48:51.385Z,99416.49
2023-04-05T00:51:20.293Z,99414.06
2023-04-05T00:53:53.109Z,99410.27
2023-04-05T00:56:22.090Z,99401.75
2023-04-05T00:58:57.399Z,99402.54
2023-04-05T01:01:26.689Z,99403.34
2023-04-05T01:04:03.241Z,99409.65
2023-04-05T01:06:45.494Z,99404.94
2023-04-05T01:09:32.474Z,99412.63
2023-04-05T01:12:03.362Z,99416.27
2023-04-05T01:14:34.405Z,99412.36
2023-04-05T01:17:04.286Z,99411.02
2023-04-05T01:19:35.299Z,99407.98
2023-04-05T01:22:16.362Z,99409.70
2023-04-05T01:25:11.100Z,99403.54
2023-04-05T01:27:57.797Z,99406.26
2023-04-05T01:30:32.473Z,99402.89
2023-04-05T01:33:17.432Z,99402.41
2023-04-05T01:35:52.642Z,99401.34
2023-04-05T01:38:25.291Z,99401.88
2023-04-05T01:40:53.838Z,99403.73
2023-04-05T01:43:24.062Z,99404.11
2023-04-05T01:45:52.358Z,99403.94
2023-04-05T01:48:21.279Z,99392.75
2023-04-05T01:50:50.065Z,99383.77
2023-04-05T01:53:18.036Z,99380.77
2023-04-05T01:55:46.542Z,99373.95
2023-04-05T01:58:15.481Z,99370.20
2023-04-05T02:00:44.356Z,99363.69
2023-04-05T02:03:13.101Z,99360.77
2023-04-05T02:05:42.358Z,99359.83
2023-04-05T02:08:13.516Z,99356.71
2023-04-05T02:10:43.006Z,99353.65
2023-04-05T02:13:11.491Z,99354.39
2023-04-05T02:15:40.451Z,99344.91
2023-04-05T02:18:09.551Z,99338.91
2023-04-05T02:20:37.822Z,99347.89
2023-04-05T02:23:07.614Z,99349.08
2023-04-05T02:25:36.095Z,99348.97
2023-04-05T02:28:10.725Z,99353.27
2023-04-05T02:30:40.417Z,99351.40
2023-04-05T02:33:12.726Z,99349.77
2023-04-05T02:35:42.989Z,99347.91
2023-04-05T02:38:13.228Z,99350.47
2023-04-05T02:40:42.357Z,99349.88
2023-04-05T02:43:10.946Z,99347.90
2023-04-05T02:45:40.042Z,99347.84
2023-04-05T02:48:09.020Z,99342.39
2023-04-05T02:50:37.301Z,99336.98
2023-04-05T02:53:08.504Z,99342.54
2023-04-05T02:55:37.868Z,99344.60
2023-04-05T02:58:08.803Z,99345.47
2023-04-05T03:00:42.568Z,99342.14
2023-04-05T03:03:11.819Z,99338.13
2023-04-05T03:05:43.477Z,99342.49
2023-04-05T03:08:19.706Z,99338.36
2023-04-05T03:10:54.769Z,99342.50
2023-04-05T03:13:22.893Z,99344.73
2023-04-05T03:15:55.062Z,99352.39
2023-04-05T03:18:25.997Z,99349.91
2023-04-05T03:20:57.019Z,99347.86
2023-04-05T03:23:29.792Z,99351.55
2023-04-05T03:25:57.913Z,99356.10
2023-04-05T03:28:27.027Z,99341.71
2023-04-05T03:30:57.756Z,99337.55
2023-04-05T03:33:26.116Z,99341.30
2023-04-05T03:35:55.048Z,99349.06
2023-04-05T03:38:24.123Z,99352.88
2023-04-05T03:41:06.862Z,99350.53
2023-04-05T03:43:38.097Z,99346.48
2023-04-05T03:46:07.007Z,99343.86
2023-04-05T03:48:36.893Z,99349.41
2023-04-05T03:51:05.660Z,99352.03
2023-04-05T03:53:34.239Z,99350.67
2023-04-05T03:56:02.434Z,99351.36
2023-04-05T03:58:46.453Z,99347.52
2023-04-05T04:01:15.687Z,99346.35
2023-04-05T04:03:45.028Z,99342.56
2023-04-05T04:06:13.249Z,99341.52
2023-04-05T04:08:43.131Z,99338.70
2023-04-05T04:11:11.843Z,99333.58
2023-04-05T04:13:42.366Z,99336.63
2023-04-05T04:16:18.280Z,99328.61
2023-04-05T04:19:18.947Z,99335.62
2023-04-05T04:22:10.300Z,99331.94
2023-04-05T04:24:50.267Z,99323.27
2023-04-05T04:27:39.780Z,99326.06
2023-04-05T04:30:18.542Z,99326.39
2023-04-05T04:33:09.110Z,99330.59
2023-04-05T04:35:40.702Z,99328.78
2023-04-05T04:38:27.976Z,99327.63
2023-04-05T04:41:17.784Z,99320.45
2023-04-05T04:44:03.171Z,99320.61
2023-04-05T04:46:34.999Z,99322.50
2023-04-05T04:49:17.406Z,99326.16
2023-04-05T04:51:51.678Z,99332.05
2023-04-05T04:54:23.040Z,99340.91
2023-04-05T04:56:51.989Z,99341.09
2023-04-05T04:59:20.736Z,99330.65
2023-04-05T05:01:53.231Z,99332.95
2023-04-05T05:04:23.076Z,99331.31
2023-04-05T05:06:53.802Z,99334.79
2023-04-05T05:09:21.981Z,99338.98
2023-04-05T05:11:59.235Z,99332.59
2023-04-05T05:14:27.451Z,99331.00
2023-04-05T05:16:59.289Z,99327.38
2023-04-05T05:19:31.935Z,99330.44
2023-04-05T05:22:00.548Z,99327.89
2023-04-05T05:24:28.896Z,99327.03
2023-04-05T05:26:57.271Z,99325.33
2023-04-05T05:29:25.929Z,99324.15
2023-04-05T05:31:55.151Z,99313.59
2023-04-05T05:34:28.334Z,99309.54
2023-04-05T05:37:01.768Z,99313.13
2023-04-05T05:39:30.397Z,99316.05
2023-04-05T05:41:59.096Z,99315.45
2023-04-05T05:44:28.464Z,99315.97
2023-04-05T05:46:58.924Z,99312.70
2023-04-05T05:49:27.317Z,99310.02
2023-04-05T05:51:59.031Z,99313.02
2023-04-05T05:54:31.228Z,99315.05
2023-04-05T05:56:59.552Z,99312.38
2023-04-05T05:59:28.217Z,99310.92
2023-04-05T06:01:56.643Z,99307.88
2023-04-05T06:04:28.497Z,99299.41
2023-04-05T06:06:57.877Z,99302.63
2023-04-05T06:09:29.415Z,99306.11
2023-04-05T06:11:58.703Z,99304.20
2023-04-05T06:14:27.291Z,99312.64
2023-04-05T06:17:05.018Z,99314.02
2023-04-05T06:19:35.418Z,99315.41
2023-04-05T06:22:03.590Z,99314.49
2023-04-05T06:24:33.401Z,99315.38
2023-04-05T06:27:02.819Z,99322.41
2023-04-05T06:29:32.926Z,99311.06
2023-04-05T06:32:02.333Z,99316.48
2023-04-05T06:34:31.123Z,99315.02
2023-04-05T06:37:00.837Z,99314.96
2023-04-05T06:39:29.316Z,99316.17
2023-04-05T06:41:58.106Z,99315.31
2023-04-05T06:44:27.618Z,99313.52
2023-04-05T06:46:55.682Z,99312.77
2023-04-05T06:49:23.930Z,99322.21
2023-04-05T06:51:52.445Z,99324.52
2023-04-05T06:54:24.265Z,99320.42
2023-04-05T06:56:52.894Z,99320.58
2023-04-05T06:59:21.651Z,99325.95
2023-04-05T07:01:50.680Z,99321.89
2023-04-05T07:04:19.080Z,99317.94
2023-04-05T07:06:47.337Z,99323.56
2023-04-05T07:09:21.458Z,99318.87
2023-04-05T07:11:50.251Z,99310.73
2023-04-05T07:14:18.519Z,99310.55
2023-04-05T07:16:52.547Z,99303.55
2023-04-05T07:19:20.715Z,99305.02
2023-04-05T07:21:49.404Z,99296.69
2023-04-05T07:24:20.649Z,99294.25
2023-04-05T07:26:48.858Z,99296.37
2023-04-05T07:29:17.768Z,99290.10
2023-04-05T07:31:47.272Z,99289.05
2023-04-05T07:34:15.855Z,99290.58
2023-04-05T07:36:44.081Z,99288.11
2023-04-05T07:39:12.871Z,99283.68
2023-04-05T07:41:42.761Z,99289.63
2023-04-05T07:44:13.633Z,99291.71
2023-04-05T07:46:46.876Z,99286.58
2023-04-05T07:49:16.650Z,99286.08
2023-04-05T07:51:46.550Z,99292.02
2023-04-05T07:54:14.849Z,99289.79
2023-04-05T07:56:43.106Z,99287.20
2023-04-05T07:59:12.979Z,99291.75
2023-04-05T08:01:43.147Z,99294.14
2023-04-05T08:04:11.463Z,99293.45
2023-04-05T08:06:40.033Z,99297.13
2023-04-05T08:09:09.287Z,99296.08
2023-04-05T08:11:37.586Z,99297.45
2023-04-05T08:14:06.807Z,99301.41
2023-04-05T08:16:35.039Z,99301.80
2023-04-05T08:19:03.702Z,99302.52
2023-04-05T08:21:31.931Z,99301.93
2023-04-05T08:24:01.750Z,99300.40
2023-04-05T08:26:30.672Z,99303.92
2023-04-05T08:28:59.379Z,99304.52
2023-04-05T08:31:28.750Z,99309.67
2023-04-05T08:33:57.475Z,99305.15
2023-04-05T08:36:27.440Z,99299.91
2023-04-05T08:38:55.915Z,99305.07
2023-04-05T08:41:24.296Z,99303.36
2023-04-05T08:44:00.283Z,99302.91
2023-04-05T08:46:33.891Z,99294.35
2023-04-05T08:49:07.629Z,99301.12
2023-04-05T08:51:39.585Z,99302.23
2023-04-05T08:54:10.167Z,99296.94
2023-04-05T08:56:38.316Z,99304.02
2023-04-05T08:59:09.684Z,99303.81
2023-04-05T09:01:41.848Z,99299.67
2023-04-05T09:04:14.757Z,99295.34
2023-04-05T09:06:44.945Z,99300.45
2023-04-05T09:09:13.103Z,99300.41
2023-04-05T09:11:43.309Z,99296.23
2023-04-05T09:14:12.585Z,99292.27
2023-04-05T09:16:46.620Z,99290.67
2023-04-05T09:19:16.845Z,99291.32
2023-04-05T09:22:04.772Z,99286.66
2023-04-05T09:24:43.511Z,99290.72
2023-04-05T09:27:16.281Z,99288.41
2023-04-05T09:29:49.753Z,99286.91
2023-04-05T09:32:20.814Z,99282.15
2023-04-05T09:34:50.733Z,99285.80
2023-04-05T09:37:24.009Z,99287.10
2023-04-05T09:39:55.809Z,99285.43
2023-04-05T09:42:24.814Z,99288.01
2023-04-05T09:44:57.375Z,99289.23
2023-04-05T09:47:34.320Z,99292.98
2023-04-05T09:50:25.887Z,99284.52
2023-04-05T09:53:17.184Z,99287.80
2023-04-05T09:55:47.088Z,99288.55
2023-04-05T09:58:21.755Z,99291.44
2023-04-05T10:00:57.899Z,99290.25
2023-04-05T10:03:29.728Z,99286.29
2023-04-05T10:05:58.328Z,99292.83
2023-04-05T10:08:27.387Z,99284.68
2023-04-05T10:10:56.515Z,99280.14
2023-04-05T10:13:24.787Z,99281.05
2023-04-05T10:15:55.481Z,99277.41
2023-04-05T10:18:26.591Z,99274.58
2023-04-05T10:20:55.867Z,99275.33
2023-04-05T10:23:32.304Z,99274.69
2023-04-05T10:26:41.507Z,99274.70
2023-04-05T10:29:16.468Z,99272.07
2023-04-05T10:31:54.735Z,99274.05
2023-04-05T10:35:01.407Z,99280.17
2023-04-05T10:37:39.310Z,99273.73
2023-04-05T10:40:09.170Z,99272.23
2023-04-05T10:42:44.204Z,99274.02
2023-04-05T10:45:15.848Z,99269.16
2023-04-05T10:47:52.112Z,99272.61
2023-04-05T10:50:24.274Z,99270.57
2023-04-05T10:52:53.809Z,99276.36
2023-04-05T10:55:22.844Z,99281.89
2023-04-05T10:57:51.091Z,99279.58
2023-04-05T11:00:19.949Z,99281.85
2023-04-05T11:02:52.430Z,99275.77
2023-04-05T11:05:34.989Z,99280.39
2023-04-05T11:08:07.271Z,99283.77
2023-04-05T11:10:37.138Z,99285.10
2023-04-05T11:13:07.693Z,99286.55
2023-04-05T11:15:36.281Z,99291.33
2023-04-05T11:18:17.927Z,99290.73
2023-04-05T11:20:48.551Z,99287.36
2023-04-05T11:23:21.705Z,99285.80
2023-04-05T11:25:53.724Z,99284.67
2023-04-05T11:28:26.506Z,99280.65
2023-04-05T11:30:59.050Z,99283.92
2023-04-05T11:33:37.531Z,99282.48
2023-04-05T11:36:06.992Z,99281.39
2023-04-05T11:38:35.802Z,99281.55
2023-04-05T11:41:21.279Z,99279.84
2023-04-05T11:43:51.391Z,99281.23
2023-04-05T11:46:19.612Z,99280.09
2023-04-05T11:48:50.681Z,99283.63
2023-04-05T11:51:18.986Z,99279.81
2023-04-05T11:53:47.384Z,99274.88
2023-04-05T11:56:20.213Z,99281.80
2023-04-05T11:58:48.425Z,99276.91
2023-04-05T12:01:16.701Z,99278.77
2023-04-05T12:03:46.707Z,99281.26
2023-04-05T12:06:15.538Z,99276.27
2023-04-05T12:08:50.974Z,99265.94
2023-04-05T12:11:25.712Z,99265.51
2023-04-05T12:14:02.658Z,99259.60
2023-04-05T12:16:31.218Z,99250.73
2023-04-05T12:19:00.909Z,99245.52
2023-04-05T12:21:29.565Z,99241.22
2023-04-05T12:23:58.924Z,99236.02
2023-04-05T12:26:27.034Z,99235.69
2023-04-05T12:28:58.836Z,99234.39
2023-04-05T12:31:46.329Z,99232.83
2023-04-05T12:34:14.818Z,99231.54
2023-04-05T12:36:46.317Z,99230.09
2023-04-05T12:39:16.433Z,99224.88
2023-04-05T12:41:44.580Z,99229.13
2023-04-05T12:44:15.898Z,99227.02
2023-04-05T12:46:45.675Z,99224.61
2023-04-05T12:49:17.735Z,99229.38
2023-04-05T12:51:46.619Z,99232.73
2023-04-05T12:54:25.866Z,99227.81
2023-04-05T12:56:54.727Z,99227.48
2023-04-05T12:59:23.374Z,99222.41
2023-04-05T13:01:52.451Z,99219.43
2023-04-05T13:04:23.266Z,99216.83
2023-04-05T13:06:55.243Z,99208.52
2023-04-05T13:09:23.675Z,99212.55
2023-04-05T13:11:51.974Z,99217.03
2023-04-05T13:14:20.026Z,99220.68
2023-04-05T13:16:48.768Z,99220.64
2023-04-05T13:19:16.772Z,99215.48
2023-04-05T13:21:45.842Z,99214.56
2023-04-05T13:24:13.863Z,99212.79
2023-04-05T13:26:45.344Z,99205.23
2023-04-05T13:29:13.377Z,99204.38
2023-04-05T13:31:41.624Z,99209.98
2023-04-05T13:34:13.665Z,99211.72
2023-04-05T13:36:41.856Z,99213.13
2023-04-05T13:39:12.430Z,99206.84
2023-04-05T13:41:40.710Z,99200.98
2023-04-05T13:44:08.745Z,99205.99
2023-04-05T13:46:37.462Z,99210.66
2023-04-05T13:49:06.178Z,99198.69
2023-04-05T13:51:37.067Z,99197.95
2023-04-05T13:54:05.381Z,99209.14
2023-04-05T13:56:38.450Z,99212.85
2023-04-05T13:59:07.024Z,99210.11
2023-04-05T14:01:35.278Z,99211.88
2023-04-05T14:04:03.458Z,99213.44
2023-04-05T14:06:31.753Z,99208.77
2023-04-05T14:09:00.114Z,99203.83
2023-04-05T14:11:28.946Z,99206.14
2023-04-05T14:13:57.195Z,99196.38
2023-04-05T14:16:25.639Z,99194.66
2023-04-05T14:18:56.827Z,99189.06
2023-04-05T14:21:26.310Z,99186.59
2023-04-05T14:23:57.171Z,99189.23
2023-04-05T14:26:26.385Z,99190.94
2023-04-05T14:28:54.765Z,99178.41
2023-04-05T14:31:27.108Z,99173.09
2023-04-05T14:33:56.116Z,99185.88
2023-04-05T14:36:24.405Z,99182.29
2023-04-05T14:38:56.629Z,99182.50
2023-04-05T14:41:25.272Z,99194.25
2023-04-05T14:43:54.242Z,99181.25
2023-04-05T14:46:23.277Z,99178.95
2023-04-05T14:48:51.653Z,99184.13
2023-04-05T14:51:19.958Z,99183.77
2023-04-05T14:53:48.180Z,99185.52
2023-04-05T14:56:17.519Z,99188.70
2023-04-05T14:58:45.717Z,99205.03
2023-04-05T15:01:13.782Z,99210.34
2023-04-05T15:03:43.923Z,99201.41
2023-04-05T15:06:12.546Z,99201.60
2023-04-05T15:08:40.750Z,99207.17
2023-04-05T15:11:12.764Z,99212.17
2023-04-05T15:13:41.292Z,99214.49
2023-04-05T15:16:12.756Z,99215.55
2023-04-05T15:18:42.362Z,99205.55
2023-04-05T15:21:11.284Z,99205.94
2023-04-05T15:23:40.939Z,99202.66
2023-04-05T15:26:09.260Z,99196.53
2023-04-05T15:28:37.350Z,99196.88
2023-04-05T15:31:06.088Z,99202.79
2023-04-05T15:33:34.547Z,99197.52
2023-04-05T15:36:02.874Z,99189.90
2023-04-05T15:38:31.263Z,99201.40
2023-04-05T15:40:59.837Z,99207.80
2023-04-05T15:43:28.007Z,99206.36
2023-04-05T15:45:56.306Z,99201.95
2023-04-05T15:48:24.436Z,99202.66
2023-04-05T15:51:16.489Z,99207.55
2023-04-05T15:53:45.280Z,99201.80
2023-04-05T15:56:13.461Z,99197.55
2023-04-05T15:58:41.948Z,99208.00
2023-04-05T16:01:10.059Z,99201.55
2023-04-05T16:03:39.682Z,99207.42
2023-04-05T16:06:08.184Z,99202.15
2023-04-05T16:08:36.702Z,99198.27
2023-04-05T16:11:04.873Z,99199.58
2023-04-05T16:13:39.985Z,99198.52
2023-04-05T16:16:09.013Z,99195.59
2023-04-05T16:18:37.197Z,99194.14
2023-04-05T16:21:05.672Z,99201.60
2023-04-05T16:23:34.839Z,99195.05
2023-04-05T16:26:03.023Z,99193.56
2023-04-05T16:28:31.975Z,99199.31
2023-04-05T16:31:00.232Z,99194.52
2023-04-05T16:33:28.562Z,99193.50
2023-04-05T16:35:57.599Z,99199.58
2023-04-05T16:38:26.905Z,99206.19
2023-04-05T16:40:57.915Z,99204.25
2023-04-05T16:43:26.082Z,99201.77
2023-04-05T16:45:54.234Z,99209.47
2023-04-05T16:48:23.898Z,99200.96
2023-04-05T16:50:52.023Z,99201.35
2023-04-05T16:53:20.193Z,99201.13
2023-04-05T16:55:48.543Z,99202.90
2023-04-05T16:58:17.034Z,99209.60
2023-04-05T17:00:45.827Z,99215.30
2023-04-05T17:03:17.770Z,99194.84
2023-04-05T17:05:47.150Z,99204.30
2023-04-05T17:08:16.110Z,99214.17
2023-04-05T17:10:44.446Z,99215.89
2023-04-05T17:13:12.567Z,99213.69
2023-04-05T17:15:47.572Z,99223.78
2023-04-05T17:18:16.448Z,99219.05
2023-04-05T17:20:44.722Z,99219.27
2023-04-05T17:23:12.801Z,99220.02
2023-04-05T17:25:41.130Z,99219.11
2023-04-05T17:28:10.021Z,99222.70
2023-04-05T17:30:38.836Z,99215.55
2023-04-05T17:33:07.684Z,99224.90
2023-04-05T17:35:36.820Z,99216.61
2023-04-05T17:38:05.694Z,99228.39
2023-04-05T17:40:33.958Z,99228.86
2023-04-05T17:43:26.899Z,99213.83
2023-04-05T17:45:55.148Z,99224.63
2023-04-05T17:48:23.946Z,99228.33
2023-04-05T17:50:53.264Z,99226.66
2023-04-05T17:53:22.248Z,99232.10
2023-04-05T17:55:50.495Z,99233.11
2023-04-05T17:58:19.430Z,99228.11
2023-04-05T18:00:50.694Z,99234.63
2023-04-05T18:03:19.569Z,99226.49
2023-04-05T18:08:46.984Z,99228.26
2023-04-05T18:11:15.256Z,99220.02
2023-04-05T18:13:43.606Z,99222.29
2023-04-05T18:16:12.570Z,99224.26
2023-04-05T18:18:42.734Z,99218.28
2023-04-05T18:21:10.820Z,99225.27
2023-04-05T18:23:39.269Z,99216.71
2023-04-05T18:26:08.227Z,99209.77
2023-04-05T18:28:36.575Z,99215.94
2023-04-05T18:31:05.019Z,99215.61
2023-04-05T18:33:34.404Z,99217.21
2023-04-05T18:36:03.250Z,99216.08
2023-04-05T18:38:32.099Z,99206.50
2023-04-05T18:41:02.172Z,99207.68
2023-04-05T18:43:31.900Z,99202.02
2023-04-05T18:46:00.618Z,99200.30
2023-04-05T18:48:30.352Z,99191.10
2023-04-05T18:50:58.653Z,99210.39
2023-04-05T18:53:26.762Z,99183.56
2023-04-05T18:55:55.185Z,99195.70
2023-04-05T18:58:23.714Z,99184.71
2023-04-05T19:00:51.779Z,99184.16
2023-04-05T19:03:20.744Z,99206.42
2023-04-05T19:05:56.949Z,99178.94
2023-04-05T19:08:31.039Z,99185.40
2023-04-05T19:10:59.532Z,99183.08
2023-04-05T19:13:27.799Z,99169.48
2023-04-05T19:15:57.299Z,99177.76
2023-04-05T19:18:28.016Z,99184.52
2023-04-05T19:21:00.797Z,99174.40
2023-04-05T19:23:30.496Z,99175.60
2023-04-05T19:25:58.663Z,99172.19
2023-04-05T19:28:27.320Z,99168.14
2023-04-05T19:30:55.854Z,99166.63
2023-04-05T19:33:27.068Z,99161.06
2023-04-05T19:35:57.926Z,99167.48
2023-04-05T19:38:26.255Z,99157.80
2023-04-05T19:40:58.005Z,99152.02
2023-04-05T19:43:27.290Z,99150.44
2023-04-05T19:45:57.264Z,99148.17
2023-04-05T19:48:42.506Z,99146.37
2023-04-05T19:51:11.940Z,99137.21
2023-04-05T19:53:50.495Z,99144.20
2023-04-05T19:56:30.010Z,99147.89
2023-04-05T19:59:13.785Z,99143.75
2023-04-05T20:01:47.322Z,99141.20
2023-04-05T20:04:20.014Z,99134.20
2023-04-05T20:06:54.305Z,99131.61
2023-04-05T20:09:24.873Z,99126.17
2023-04-05T20:12:01.408Z,99131.90
2023-04-05T20:14:42.057Z,99127.50
2023-04-05T20:17:12.580Z,99109.36
2023-04-05T20:19:41.610Z,99123.33
2023-04-05T20:22:10.153Z,99114.44
2023-04-05T20:24:39.738Z,99115.13
2023-04-05T20:27:15.183Z,99110.88
2023-04-05T20:29:43.800Z,99108.08
2023-04-05T20:32:11.973Z,99109.36
2023-04-05T20:34:43.756Z,99100.66
2023-04-05T20:37:19.333Z,99097.52
2023-04-05T20:39:47.481Z,99096.98
2023-04-05T20:42:16.382Z,99096.27
2023-04-05T20:44:49.246Z,99085.36
2023-04-05T20:47:17.543Z,99076.07
2023-04-05T20:49:47.743Z,99080.05
2023-04-05T20:52:17.610Z,99070.66
2023-04-05T20:54:47.280Z,99069.31
2023-04-05T20:57:16.305Z,99064.42
2023-04-05T20:59:44.738Z,99064.58
2023-04-05T21:02:12.825Z,99059.95
2023-04-05T21:04:41.779Z,99063.52
2023-04-05T21:07:10.356Z,99056.64
2023-04-05T21:09:38.450Z,99057.02
2023-04-05T21:12:08.833Z,99052.06
2023-04-05T21:14:37.190Z,99050.91
2023-04-05T21:17:05.513Z,99048.59
2023-04-05T21:19:34.000Z,99048.30
2023-04-05T21:22:02.917Z,99049.14
2023-04-05T21:24:31.250Z,99044.08
2023-04-05T21:26:59.865Z,99051.70
2023-04-05T21:29:37.605Z,99049.02
2023-04-05T21:32:06.498Z,99049.49
2023-04-05T21:34:34.987Z,99045.38
2023-04-05T21:37:04.269Z,99051.96
2023-04-05T21:39:32.954Z,99045.50
2023-04-05T21:42:01.348Z,99048.44
2023-04-05T21:44:30.219Z,99041.05
2023-04-05T21:46:59.526Z,99041.10
2023-04-05T21:49:38.360Z,99044.47
2023-04-05T21:52:06.542Z,99039.84
2023-04-05T21:54:34.601Z,99035.31
2023-04-05T21:57:04.198Z,99036.00
2023-04-05T21:59:32.445Z,99037.88
2023-04-05T22:02:01.953Z,99037.88
2023-04-05T22:04:30.489Z,99037.11
2023-04-05T22:06:58.822Z,99036.79
2023-04-05T22:09:28.387Z,99033.19
2023-04-05T22:12:01.612Z,99033.40
2023-04-05T22:14:30.848Z,99024.86
2023-04-05T22:16:59.089Z,99031.48
2023-04-05T22:19:32.226Z,99025.52
2023-04-05T22:22:00.611Z,99026.76
2023-04-05T22:24:29.248Z,99019.88
2023-04-05T22:26:57.489Z,99018.73
2023-04-05T22:29:25.965Z,99024.82
2023-04-05T22:31:54.722Z,99020.16
2023-04-05T22:34:23.087Z,99020.44
2023-04-05T22:36:51.331Z,99015.38
2023-04-05T22:39:20.949Z,99013.27
2023-04-05T22:41:49.401Z,99007.23
2023-04-05T22:44:21.800Z,99009.26
2023-04-05T22:46:50.612Z,99009.80
2023-04-05T22:49:18.808Z,99004.75
2023-04-05T22:51:46.954Z,99000.00
2023-04-05T22:54:15.219Z,99007.27
2023-04-05T22:56:44.800Z,99006.74
2023-04-05T22:59:13.258Z,99003.09
2023-04-05T23:01:41.480Z,99004.19
2023-04-05T23:04:10.085Z,99002.20
2023-04-05T23:06:39.492Z,98998.05
2023-04-05T23:09:08.383Z,98996.32
2023-04-05T23:11:37.090Z,98998.45
2023-04-05T23:14:06.597Z,98997.00
2023-04-05T23:16:35.651Z,98989.81
2023-04-05T23:19:04.642Z,98990.67
2023-04-05T23:21:33.637Z,98993.61
2023-04-05T23:24:02.658Z,98990.94
2023-04-05T23:26:30.926Z,98992.42
2023-04-05T23:28:59.127Z,98993.05
2023-04-05T23:31:28.440Z,98988.80
2023-04-05T23:33:56.901Z,98984.38
2023-04-05T23:36:29.559Z,98974.70
2023-04-05T23:39:00.165Z,98978.89
2023-04-05T23:41:28.480Z,98984.60
2023-04-05T23:43:57.450Z,98984.27
2023-04-05T23:46:26.450Z,98986.04
2023-04-05T23:48:54.494Z,98980.03
2023-04-05T23:51:22.848Z,98970.71
2023-04-05T23:53:52.860Z,98971.33
2023-04-05T23:56:21.296Z,98973.67
2023-04-05T23:58:49.613Z,98973.60
